Time;durP1;ratioP1;P1;durP2;ratioP2;P2;SDS_P1;SDS_P2;PMS_P1;PMS_P2;Temp;Humidity;BMP_temperature;BMP_pressure;BME280_temperature;BME280_humidity;BME280_pressure;Samples;Min_cycle;Max_cycle;Signal;HPM_P1;HPM_P2
2023/02/19 00:02:00;;;;;;;4.50;3.13;;;;;;;5.85;98.92;100923.13;5036315;28;20197;-69
2023/02/19 00:04:31;;;;;;;3.60;1.85;;;;;;;5.79;99.07;100920.28;5034846;28;20205;-66
2023/02/19 00:07:01;;;;;;;5.05;3.50;;;;;;;5.65;100.00;100922.66;5033950;28;20714;-69
2023/02/19 00:09:30;;;;;;;2.95;2.22;;;;;;;5.80;100.00;100925.47;5013408;28;20683;-67
2023/02/19 00:12:00;;;;;;;5.25;3.13;;;;;;;5.60;100.00;100911.59;5018789;28;20216;-69
2023/02/19 00:14:30;;;;;;;10.02;4.40;;;;;;;5.74;100.00;100914.56;5016998;28;20193;-69
2023/02/19 00:17:02;;;;;;;2.85;2.33;;;;;;;5.77;100.00;100911.53;5011999;28;20223;-69
2023/02/19 00:19:35;;;;;;;4.43;2.55;;;;;;;5.78;99.91;100907.84;5014791;28;20291;-67
2023/02/19 00:22:05;;;;;;;2.53;2.05;;;;;;;5.77;100.00;100903.47;5044641;28;20197;-67
2023/02/19 00:24:35;;;;;;;2.83;2.20;;;;;;;5.82;100.00;100914.56;5018095;28;20208;-69
2023/02/19 00:27:05;;;;;;;6.00;2.00;;;;;;;5.86;99.76;100918.56;5013374;28;20426;-68
2023/02/19 00:29:34;;;;;;;4.15;2.28;;;;;;;5.78;99.34;100913.22;5040400;28;20634;-68
2023/02/19 00:32:09;;;;;;;3.50;2.30;;;;;;;5.83;99.73;100910.88;5031011;28;20189;-69
2023/02/19 00:34:39;;;;;;;3.25;2.55;;;;;;;5.81;100.00;100899.47;5006189;28;20197;-68
2023/02/19 00:37:09;;;;;;;3.28;2.63;;;;;;;5.79;97.69;100899.63;5008958;28;20209;-69
2023/02/19 00:39:38;;;;;;;3.45;2.35;;;;;;;5.68;98.55;100890.09;5010975;28;20244;-68
2023/02/19 00:42:09;;;;;;;4.65;1.80;;;;;;;5.52;98.90;100876.66;5010816;28;20264;-69
2023/02/19 00:44:39;;;;;;;2.40;1.85;;;;;;;5.56;98.52;100887.94;5011873;28;20202;-69
2023/02/19 00:47:10;;;;;;;3.03;1.77;;;;;;;5.43;98.69;100884.91;5022944;28;20268;-69
2023/02/19 00:49:40;;;;;;;4.78;2.10;;;;;;;5.65;98.87;100892.28;5008500;28;20205;-68
2023/02/19 00:52:10;;;;;;;4.38;2.00;;;;;;;5.65;97.69;100897.66;5039379;28;20261;-70
2023/02/19 00:54:40;;;;;;;3.00;1.70;;;;;;;5.56;99.03;100886.09;5032850;28;20224;-68
2023/02/19 00:57:09;;;;;;;2.90;2.13;;;;;;;5.63;99.76;100889.75;5013821;28;20243;-66
2023/02/19 00:59:39;;;;;;;3.15;1.92;;;;;;;5.73;99.01;100883.34;5020404;28;20288;-68
2023/02/19 01:02:10;;;;;;;2.47;1.65;;;;;;;5.75;98.06;100875.97;5010557;28;20292;-68
2023/02/19 01:04:40;;;;;;;3.53;2.05;;;;;;;5.78;97.89;100889.91;5014459;28;20212;-69
2023/02/19 01:07:16;;;;;;;2.33;1.90;;;;;;;5.81;98.13;100881.50;5015230;28;20319;-67
2023/02/19 01:09:46;;;;;;;5.28;2.28;;;;;;;5.80;97.70;100873.63;5031438;28;20208;-69
2023/02/19 01:12:15;;;;;;;2.75;2.00;;;;;;;5.58;98.26;100873.31;5012486;28;20198;-68
2023/02/19 01:14:45;;;;;;;4.50;2.70;;;;;;;5.61;98.65;100869.47;5010689;28;20205;-68
2023/02/19 01:17:17;;;;;;;3.58;2.83;;;;;;;5.48;98.94;100869.97;5031891;28;20217;-69
2023/02/19 01:19:47;;;;;;;4.10;2.25;;;;;;;5.56;99.72;100867.31;5012753;28;20202;-69
2023/02/19 01:22:16;;;;;;;3.70;2.55;;;;;;;5.52;99.57;100868.63;5026196;28;20213;-69
2023/02/19 01:24:46;;;;;;;3.47;2.70;;;;;;;5.47;99.66;100852.19;5014366;28;20705;-68
2023/02/19 01:27:16;;;;;;;6.25;2.58;;;;;;;5.47;99.93;100840.66;5012008;28;20267;-68
2023/02/19 01:29:46;;;;;;;8.63;2.75;;;;;;;5.40;100.00;100851.22;5019129;28;20197;-68
2023/02/19 01:32:17;;;;;;;4.10;2.67;;;;;;;5.41;100.00;100844.00;5014912;28;20202;-68
2023/02/19 01:34:47;;;;;;;2.65;2.20;;;;;;;5.49;100.00;100828.72;5017683;28;20193;-67
2023/02/19 01:37:17;;;;;;;3.90;3.00;;;;;;;5.30;100.00;100823.72;5031165;28;20726;-68
2023/02/19 01:39:47;;;;;;;3.72;2.72;;;;;;;5.19;100.00;100821.38;5017129;28;20201;-68
2023/02/19 01:42:17;;;;;;;5.97;3.15;;;;;;;5.17;100.00;100836.81;5021478;28;20222;-66
2023/02/19 01:45:23;;;;;;;4.18;2.70;;;;;;;5.17;100.00;100836.81;5007714;28;20200;-68
2023/02/19 01:48:07;;;;;;;4.90;4.07;;;;;;;5.15;100.00;100828.09;5013472;28;20210;-67
2023/02/19 01:50:44;;;;;;;4.85;3.00;;;;;;;5.12;100.00;100825.75;5016393;28;20205;-69
2023/02/19 01:53:17;;;;;;;5.45;3.55;;;;;;;5.04;100.00;100823.91;5056988;28;20599;-68
2023/02/19 01:55:50;;;;;;;4.13;3.42;;;;;;;5.05;100.00;100822.91;5011605;28;20637;-68
2023/02/19 01:58:20;;;;;;;9.65;4.03;;;;;;;5.02;100.00;100822.41;5021067;28;20216;-69
2023/02/19 02:00:50;;;;;;;5.93;4.30;;;;;;;4.96;100.00;100812.34;5027147;28;20191;-68
2023/02/19 02:03:22;;;;;;;4.18;3.45;;;;;;;4.91;100.00;100809.31;5024776;28;20204;-71
2023/02/19 02:05:57;;;;;;;7.65;3.58;;;;;;;4.93;100.00;100794.75;5022915;28;20197;-68
2023/02/19 02:11:15;;;;;;;6.60;4.20;;;;;;;4.95;100.00;100786.53;5035804;28;20581;-69
2023/02/19 02:13:45;;;;;;;6.45;5.10;;;;;;;5.08;100.00;100797.59;5039245;28;20248;-67
2023/02/19 02:16:37;;;;;;;7.85;4.35;;;;;;;4.96;100.00;100793.56;5017090;28;20225;-67
2023/02/19 02:19:27;;;;;;;7.88;5.57;;;;;;;4.89;100.00;100806.78;5013962;28;20225;-70
2023/02/19 02:22:11;;;;;;;9.60;5.75;;;;;;;4.70;100.00;100804.44;5021352;28;20196;-69
2023/02/19 02:25:14;;;;;;;5.55;4.07;;;;;;;4.76;100.00;100798.41;5042249;28;20204;-69
2023/02/19 02:27:54;;;;;;;8.25;5.80;;;;;;;4.70;100.00;100813.31;5022309;28;20217;-69
2023/02/19 02:30:42;;;;;;;6.47;4.38;;;;;;;4.72;100.00;100808.66;5039639;28;20204;-69
2023/02/19 02:33:23;;;;;;;7.28;4.55;;;;;;;4.79;100.00;100804.28;5030183;28;20193;-68
2023/02/19 02:35:56;;;;;;;8.60;4.80;;;;;;;4.84;100.00;100802.97;5015439;28;20659;-68
2023/02/19 02:38:32;;;;;;;7.18;5.07;;;;;;;4.76;100.00;100801.94;5014162;28;20193;-69
2023/02/19 02:41:04;;;;;;;7.43;4.97;;;;;;;4.83;100.00;100799.44;5024627;28;20296;-68
2023/02/19 02:43:34;;;;;;;6.70;4.32;;;;;;;4.81;99.91;100801.44;5017923;28;20185;-68
2023/02/19 02:46:06;;;;;;;6.93;3.95;;;;;;;4.80;99.28;100795.22;5025229;28;20235;-68
2023/02/19 02:48:41;;;;;;;6.35;3.70;;;;;;;4.84;99.43;100789.56;5017151;28;20647;-68
2023/02/19 02:51:17;;;;;;;8.70;4.38;;;;;;;4.76;99.22;100799.25;5017093;28;20200;-69
2023/02/19 02:56:46;;;;;;;8.65;4.55;;;;;;;4.65;100.00;100807.63;5014470;28;20268;-69
2023/02/19 02:59:18;;;;;;;7.00;4.32;;;;;;;4.66;100.00;100809.31;5016137;28;20609;-67
2023/02/19 03:02:11;;;;;;;10.27;4.30;;;;;;;4.63;100.00;100803.44;5023003;28;20205;-70
2023/02/19 03:07:39;;;;;;;4.78;4.10;;;;;;;4.54;100.00;100809.81;5010808;28;20241;-67
2023/02/19 03:10:13;;;;;;;8.88;4.32;;;;;;;4.45;100.00;100811.63;5004468;28;20197;-68
2023/02/19 03:21:23;;;;;;;8.88;5.60;;;;;;;4.32;100.00;100830.00;5012525;28;20623;-70
2023/02/19 03:26:44;;;;;;;8.38;5.00;;;;;;;4.34;100.00;100826.19;5004278;28;20242;-66
2023/02/19 03:29:25;;;;;;;8.00;4.90;;;;;;;4.30;100.00;100829.34;4996770;28;20670;-69
2023/02/19 03:32:09;;;;;;;6.80;4.30;;;;;;;4.10;100.00;100833.28;5029989;28;20197;-70
2023/02/19 03:34:47;;;;;;;7.40;4.88;;;;;;;3.97;100.00;100840.94;5027510;28;20232;-68
2023/02/19 03:37:24;;;;;;;5.65;4.53;;;;;;;3.86;100.00;100842.06;5060585;28;20280;-68
2023/02/19 03:39:55;;;;;;;5.45;2.75;;;;;;;3.65;99.93;100837.09;5022092;28;20196;-69
2023/02/19 03:42:40;;;;;;;7.82;2.85;;;;;;;3.55;99.50;100841.72;5030431;28;20251;-69
2023/02/19 03:45:45;;;;;;;6.10;2.88;;;;;;;3.43;100.00;100841.16;5022308;28;20205;-68
2023/02/19 03:48:30;;;;;;;5.32;2.60;;;;;;;3.35;99.79;100843.75;5005194;28;20218;-66
2023/02/19 03:51:28;;;;;;;6.88;1.95;;;;;;;3.31;100.00;100844.22;5000219;28;20224;-67
2023/02/19 03:54:08;;;;;;;6.32;3.00;;;;;;;3.36;100.00;100844.59;5000127;28;20295;-67
2023/02/19 03:56:45;;;;;;;8.82;3.60;;;;;;;3.33;100.00;100845.78;5015678;28;20228;-69
2023/02/19 03:59:21;;;;;;;6.82;2.58;;;;;;;3.32;100.00;100843.25;5042566;28;20201;-69
2023/02/19 04:02:01;;;;;;;5.95;2.90;;;;;;;3.32;100.00;100843.25;5024612;28;20585;-67
2023/02/19 04:04:38;;;;;;;4.65;3.70;;;;;;;3.35;100.00;100849.09;5015695;28;20216;-70
2023/02/19 04:07:15;;;;;;;6.18;3.97;;;;;;;3.36;100.00;100848.13;4995988;28;20298;-68
2023/02/19 04:09:53;;;;;;;7.93;3.65;;;;;;;3.33;100.00;100856.47;5015729;28;20667;-68
2023/02/19 04:12:35;;;;;;;7.18;3.45;;;;;;;3.40;100.00;100859.34;5019329;28;20217;-68
2023/02/19 04:15:13;;;;;;;6.95;2.90;;;;;;;3.26;100.00;100855.41;5033283;28;20553;-69
2023/02/19 04:17:52;;;;;;;13.05;2.53;;;;;;;3.14;100.00;100855.81;5011774;28;20228;-69
2023/02/19 04:20:30;;;;;;;3.30;1.88;;;;;;;3.08;100.00;100856.44;4996072;28;20197;-69
2023/02/19 04:23:05;;;;;;;9.20;2.90;;;;;;;3.00;100.00;100859.88;4996000;28;20690;-69
2023/02/19 04:25:39;;;;;;;6.47;3.20;;;;;;;3.05;100.00;100858.41;5033639;28;20201;-69
2023/02/19 04:28:16;;;;;;;5.03;1.88;;;;;;;3.00;100.00;100876.75;5004810;28;20691;-68
2023/02/19 04:30:48;;;;;;;7.95;2.80;;;;;;;2.99;100.00;100880.44;5021856;28;20197;-69
2023/02/19 04:33:20;;;;;;;4.53;3.00;;;;;;;2.96;100.00;100875.38;5030494;28;20189;-68
2023/02/19 04:35:55;;;;;;;4.75;2.45;;;;;;;3.02;100.00;100879.25;5030535;28;20197;-68
2023/02/19 04:38:43;;;;;;;5.28;2.70;;;;;;;3.01;100.00;100883.78;5034248;28;20193;-69
2023/02/19 04:41:15;;;;;;;4.25;2.22;;;;;;;2.98;100.00;100881.41;5011239;28;20198;-67
2023/02/19 04:43:47;;;;;;;5.78;3.38;;;;;;;3.08;100.00;100872.47;5005060;28;20674;-69
2023/02/19 04:46:22;;;;;;;5.93;3.55;;;;;;;3.06;100.00;100881.47;5028918;28;20219;-67
2023/02/19 04:48:54;;;;;;;4.15;3.05;;;;;;;3.04;100.00;100883.47;5012286;28;20620;-68
2023/02/19 04:51:28;;;;;;;4.53;3.00;;;;;;;3.08;100.00;100883.16;5013908;28;20213;-69
2023/02/19 04:54:01;;;;;;;3.55;2.63;;;;;;;2.92;100.00;100900.72;5024970;28;20193;-69
2023/02/19 04:56:36;;;;;;;4.70;3.40;;;;;;;2.86;100.00;100889.81;5023038;28;20228;-68
2023/02/19 04:59:07;;;;;;;7.25;3.50;;;;;;;2.83;100.00;100900.81;5016621;28;20296;-68
2023/02/19 05:01:41;;;;;;;5.88;3.55;;;;;;;2.83;100.00;100893.63;5015170;28;20200;-70
2023/02/19 05:04:17;;;;;;;6.50;3.20;;;;;;;2.88;100.00;100894.00;5015094;28;20296;-69
2023/02/19 05:06:52;;;;;;;4.82;2.72;;;;;;;2.88;100.00;100901.19;5015151;28;20220;-68
2023/02/19 05:09:26;;;;;;;5.78;3.05;;;;;;;2.89;100.00;100895.69;5014893;28;20251;-67
2023/02/19 05:11:58;;;;;;;7.75;2.92;;;;;;;2.86;100.00;100900.50;5029280;28;20212;-70
2023/02/19 05:14:37;;;;;;;4.72;2.97;;;;;;;2.79;100.00;100904.78;5019684;28;20205;-68
2023/02/19 05:17:10;;;;;;;8.50;2.45;;;;;;;2.80;100.00;100904.63;5036018;28;20275;-68
2023/02/19 05:19:44;;;;;;;6.75;2.95;;;;;;;2.77;100.00;100896.91;5019554;28;20578;-69
2023/02/19 05:22:16;;;;;;;6.97;3.90;;;;;;;2.78;100.00;100890.56;5030727;28;20196;-68
2023/02/19 05:24:50;;;;;;;7.95;3.30;;;;;;;2.78;100.00;100887.06;5014251;28;20205;-67
2023/02/19 05:27:20;;;;;;;7.95;3.83;;;;;;;2.78;100.00;100892.41;5044274;28;20233;-69
2023/02/19 05:29:51;;;;;;;9.10;3.50;;;;;;;2.82;100.00;100886.59;5044934;28;20225;-71
2023/02/19 05:32:22;;;;;;;5.38;3.45;;;;;;;2.75;100.00;100893.56;5027898;28;20193;-69
2023/02/19 05:34:53;;;;;;;4.40;3.15;;;;;;;2.77;100.00;100888.88;5032468;28;20211;-67
2023/02/19 05:37:39;;;;;;;5.43;2.75;;;;;;;2.83;100.00;100896.31;5037383;28;20279;-69
2023/02/19 05:40:16;;;;;;;9.35;3.65;;;;;;;2.74;100.00;100894.56;5022149;28;20613;-71
2023/02/19 05:42:52;;;;;;;6.78;2.83;;;;;;;2.78;100.00;100892.41;5004574;28;20654;-69
2023/02/19 05:45:32;;;;;;;4.25;2.80;;;;;;;2.80;100.00;100901.97;5018026;28;20197;-68
2023/02/19 05:48:07;;;;;;;3.80;2.38;;;;;;;2.80;100.00;100901.97;5021184;28;20221;-68
2023/02/19 05:50:46;;;;;;;3.22;2.15;;;;;;;2.80;100.00;100901.97;5052447;28;20251;-68
2023/02/19 05:53:17;;;;;;;6.05;3.30;;;;;;;2.79;100.00;100913.63;5020693;28;20244;-68
2023/02/19 05:55:49;;;;;;;5.57;2.55;;;;;;;2.71;100.00;100907.38;5017149;28;20281;-69
2023/02/19 05:58:22;;;;;;;5.32;2.63;;;;;;;2.66;100.00;100910.50;5035256;28;20210;-68
2023/02/19 06:00:52;;;;;;;3.45;2.50;;;;;;;2.75;100.00;100900.75;5029813;28;20213;-69
2023/02/19 06:03:24;;;;;;;4.35;2.10;;;;;;;2.71;100.00;100910.88;5023488;28;20664;-67
2023/02/19 06:05:55;;;;;;;2.63;2.03;;;;;;;2.90;100.00;100909.91;5015692;28;20708;-67
2023/02/19 06:08:26;;;;;;;3.67;2.25;;;;;;;2.95;100.00;100900.41;5014568;28;20239;-68
2023/02/19 06:10:59;;;;;;;4.72;2.67;;;;;;;2.80;100.00;100904.63;5023904;28;20251;-70
2023/02/19 06:13:32;;;;;;;4.35;2.13;;;;;;;2.99;100.00;100901.81;5050142;28;20201;-69
2023/02/19 06:16:04;;;;;;;8.25;2.45;;;;;;;3.01;100.00;100894.47;5042322;28;20670;-69
2023/02/19 06:18:35;;;;;;;5.20;2.00;;;;;;;2.86;100.00;100908.50;5017362;28;20252;-70
2023/02/19 06:21:08;;;;;;;5.10;2.85;;;;;;;2.89;100.00;100911.75;5009572;28;20202;-69
2023/02/19 06:23:39;;;;;;;8.73;2.65;;;;;;;3.25;100.00;100891.16;5028631;28;20212;-69
2023/02/19 06:26:16;;;;;;;9.65;2.67;;;;;;;3.39;100.00;100909.31;5028710;28;20212;-69
2023/02/19 06:28:50;;;;;;;9.48;3.25;;;;;;;3.27;100.00;100920.44;5041220;28;20201;-70
2023/02/19 06:31:21;;;;;;;4.25;2.92;;;;;;;3.30;100.00;100922.78;5013782;28;20202;-68
2023/02/19 06:33:54;;;;;;;6.80;3.35;;;;;;;3.26;100.00;100929.44;5045930;28;20248;-68
2023/02/19 06:36:27;;;;;;;14.55;2.83;;;;;;;3.19;100.00;100936.41;5000332;28;20216;-69
2023/02/19 06:39:00;;;;;;;9.75;3.83;;;;;;;3.18;100.00;100943.59;5023827;28;20197;-69
2023/02/19 06:41:33;;;;;;;5.97;2.30;;;;;;;3.18;100.00;100950.78;5044624;28;20192;-69
2023/02/19 06:44:04;;;;;;;5.35;3.42;;;;;;;3.27;100.00;100963.22;5025958;28;20254;-69
2023/02/19 06:46:34;;;;;;;3.63;2.22;;;;;;;3.20;100.00;100967.47;5019587;28;20291;-69
2023/02/19 06:49:05;;;;;;;5.72;2.47;;;;;;;3.22;100.00;100970.88;5035677;28;20205;-69
2023/02/19 06:51:35;;;;;;;2.80;1.83;;;;;;;3.30;100.00;100968.25;5018986;28;20201;-69
2023/02/19 06:54:05;;;;;;;3.63;2.60;;;;;;;3.39;100.00;100975.34;5040421;28;20189;-69
2023/02/19 06:56:38;;;;;;;4.43;2.72;;;;;;;3.50;100.00;100980.47;5016687;28;20229;-69
2023/02/19 06:59:10;;;;;;;12.70;3.05;;;;;;;3.52;100.00;100981.16;5023266;28;20288;-70
2023/02/19 07:01:40;;;;;;;3.60;2.72;;;;;;;3.57;100.00;100991.41;5029257;28;20205;-70
2023/02/19 07:04:11;;;;;;;9.68;3.03;;;;;;;3.60;100.00;100994.59;5012027;28;20189;-70
2023/02/19 07:06:40;;;;;;;6.07;2.20;;;;;;;3.63;100.00;100996.16;5029428;28;20237;-69
2023/02/19 07:09:11;;;;;;;6.05;2.72;;;;;;;3.59;100.00;101000.09;5015639;28;20296;-67
2023/02/19 07:11:42;;;;;;;9.52;2.55;;;;;;;3.52;100.00;100999.91;5035100;28;20544;-69
2023/02/19 07:14:17;;;;;;;11.77;3.53;;;;;;;3.59;100.00;101000.09;5026277;28;20246;-68
2023/02/19 07:16:46;;;;;;;5.60;2.95;;;;;;;3.48;100.00;101004.72;5034322;28;20578;-70
2023/02/19 07:19:16;;;;;;;3.60;2.30;;;;;;;3.63;100.00;101015.69;5016729;28;20225;-69
2023/02/19 07:21:46;;;;;;;3.95;2.80;;;;;;;3.62;100.00;101022.06;5019033;28;20249;-70
2023/02/19 07:24:15;;;;;;;11.52;3.78;;;;;;;3.53;100.00;101020.31;5032847;28;20272;-69
2023/02/19 07:26:46;;;;;;;4.80;3.03;;;;;;;3.54;100.00;101016.63;5016871;28;20216;-69
2023/02/19 07:29:16;;;;;;;5.30;4.80;;;;;;;3.62;100.00;101029.25;5006724;28;20332;-70
2023/02/19 07:31:45;;;;;;;6.25;3.15;;;;;;;3.62;100.00;101038.13;5033798;28;20193;-69
2023/02/19 07:34:15;;;;;;;8.25;2.92;;;;;;;3.82;100.00;101031.63;5032368;28;20267;-68
2023/02/19 07:36:44;;;;;;;6.25;3.05;;;;;;;3.74;99.93;101031.53;5014058;28;20218;-68
2023/02/19 07:39:14;;;;;;;12.65;6.50;;;;;;;3.75;99.60;101037.72;5007123;28;20236;-69
2023/02/19 07:41:45;;;;;;;6.57;4.10;;;;;;;3.80;99.66;101038.09;5014033;28;20574;-69
2023/02/19 07:44:26;;;;;;;7.25;2.92;;;;;;;3.67;98.82;101045.69;5020475;28;20216;-70
2023/02/19 07:46:57;;;;;;;6.93;2.83;;;;;;;3.64;98.30;101054.00;5041937;28;20217;-70
2023/02/19 07:49:27;;;;;;;5.18;4.68;;;;;;;3.71;99.92;101053.25;5018291;28;20250;-70
2023/02/19 07:51:57;;;;;;;7.03;3.22;;;;;;;3.73;98.99;101059.28;5045801;28;20194;-71
2023/02/19 07:54:26;;;;;;;7.05;2.58;;;;;;;3.68;98.79;101068.78;5023139;28;20212;-68
2023/02/19 07:56:58;;;;;;;6.30;2.63;;;;;;;3.72;98.29;101075.50;5029059;28;20316;-68
2023/02/19 07:59:27;;;;;;;5.25;2.60;;;;;;;3.61;98.13;101078.41;5024096;28;20190;-69
2023/02/19 08:04:44;;;;;;;3.33;3.03;;;;;;;3.91;97.40;101089.56;5014666;28;20216;-67
2023/02/19 08:07:14;;;;;;;2.78;2.38;;;;;;;3.74;97.14;101093.09;5019452;28;20245;-69
2023/02/19 08:09:43;;;;;;;3.13;2.20;;;;;;;3.85;97.90;101103.56;5013501;28;20644;-67
2023/02/19 08:15:01;;;;;;;6.03;2.70;;;;;;;4.03;96.89;101106.22;5018537;28;20613;-69
2023/02/19 08:17:31;;;;;;;4.70;2.20;;;;;;;3.88;96.57;101115.78;5012054;28;20565;-69
2023/02/19 08:20:00;;;;;;;9.13;3.28;;;;;;;3.69;95.28;101108.75;5014998;28;20263;-71
2023/02/19 08:22:29;;;;;;;3.63;2.17;;;;;;;3.49;96.05;101128.63;5016102;28;20202;-68
2023/02/19 08:24:59;;;;;;;6.10;2.70;;;;;;;3.69;97.35;101140.88;5034584;28;20193;-68
2023/02/19 08:27:30;;;;;;;6.47;2.42;;;;;;;3.69;96.66;101146.22;5010725;28;20256;-68
2023/02/19 08:30:00;;;;;;;3.05;2.17;;;;;;;3.59;95.52;101150.81;5015668;28;20217;-68
2023/02/19 08:32:30;;;;;;;4.07;1.90;;;;;;;3.64;96.15;101153.88;5037101;28;20248;-68
2023/02/19 08:35:00;;;;;;;4.13;2.42;;;;;;;3.72;95.48;101162.00;5030068;28;20185;-67
2023/02/19 08:37:34;;;;;;;4.82;2.30;;;;;;;3.78;94.92;101160.53;5013294;28;20256;-71
2023/02/19 08:40:04;;;;;;;12.30;4.05;;;;;;;3.84;93.71;101167.97;5015070;28;20641;-69
2023/02/19 08:42:34;;;;;;;5.45;2.33;;;;;;;3.89;94.39;101169.19;5012965;28;20293;-70
2023/02/19 08:45:04;;;;;;;18.48;5.00;;;;;;;4.17;93.87;101171.78;5031303;28;20268;-69
2023/02/19 08:47:37;;;;;;;15.15;4.60;;;;;;;4.44;92.15;101173.53;5030788;28;20220;-67
2023/02/19 08:50:07;;;;;;;14.40;2.30;;;;;;;4.22;90.42;101180.19;5037645;28;20201;-68
2023/02/19 08:52:37;;;;;;;6.30;2.25;;;;;;;4.29;91.30;101187.50;5035401;28;20192;-70
2023/02/19 08:55:07;;;;;;;4.25;2.25;;;;;;;4.55;91.25;101181.34;5014923;28;20671;-68
2023/02/19 08:57:38;;;;;;;6.07;2.50;;;;;;;4.85;88.39;101188.03;5039646;28;20225;-69
2023/02/19 09:00:09;;;;;;;4.57;1.77;;;;;;;4.89;88.52;101200.97;5042279;28;20197;-69
2023/02/19 09:02:39;;;;;;;4.00;1.80;;;;;;;4.97;86.84;101202.88;5033143;28;20191;-68
2023/02/19 09:05:12;;;;;;;4.63;1.63;;;;;;;4.60;87.12;101201.28;5013336;28;20223;-70
2023/02/19 09:07:42;;;;;;;5.05;2.28;;;;;;;4.47;87.82;101208.03;5027321;28;20252;-71
2023/02/19 09:10:13;;;;;;;2.75;1.23;;;;;;;4.30;87.88;101215.13;5004967;28;20201;-70
2023/02/19 09:12:44;;;;;;;6.15;2.22;;;;;;;4.36;88.85;101218.00;5013838;28;20204;-68
2023/02/19 09:15:14;;;;;;;3.40;1.67;;;;;;;4.37;88.68;101219.69;5025437;28;20261;-71
2023/02/19 09:17:44;;;;;;;3.78;1.70;;;;;;;4.54;88.50;101219.84;5029485;28;20216;-68
2023/02/19 09:20:13;;;;;;;10.00;1.83;;;;;;;4.79;89.00;101219.84;5049009;28;20198;-69
2023/02/19 09:22:43;;;;;;;4.72;1.40;;;;;;;4.71;86.76;101230.53;5026012;28;20198;-69
2023/02/19 09:25:12;;;;;;;5.00;2.00;;;;;;;4.85;87.29;101239.00;5037631;28;20205;-69
2023/02/19 09:27:43;;;;;;;1.65;0.93;;;;;;;4.93;86.48;101222.97;5006869;28;20221;-70
2023/02/19 09:30:13;;;;;;;8.57;1.60;;;;;;;4.70;86.45;101234.19;5017180;28;20200;-69
2023/02/19 09:32:42;;;;;;;5.20;1.75;;;;;;;4.75;87.00;101234.56;5015792;28;20314;-69
2023/02/19 09:35:12;;;;;;;3.53;1.65;;;;;;;4.80;86.76;101228.75;5037667;28;20726;-69
2023/02/19 09:37:41;;;;;;;9.48;3.33;;;;;;;5.09;86.32;101245.38;5030409;28;20241;-68
2023/02/19 09:40:12;;;;;;;7.90;2.45;;;;;;;5.18;84.78;101244.41;5042334;28;20204;-70
2023/02/19 09:42:44;;;;;;;4.55;1.80;;;;;;;5.22;85.28;101242.28;5019205;28;20281;-68
2023/02/19 09:45:22;;;;;;;2.50;1.60;;;;;;;4.90;85.40;101250.09;5017462;28;20743;-69
2023/02/19 09:47:56;;;;;;;11.40;2.50;;;;;;;5.27;84.49;101247.16;5037899;28;20251;-68
2023/02/19 09:50:33;;;;;;;2.80;1.67;;;;;;;5.33;83.97;101254.56;5037780;28;20192;-68
2023/02/19 09:53:07;;;;;;;4.95;2.00;;;;;;;5.16;84.44;101261.69;5015943;28;20205;-69
2023/02/19 09:55:41;;;;;;;3.35;1.73;;;;;;;5.26;83.54;101257.06;5041280;28;20348;-70
2023/02/19 09:58:25;;;;;;;8.57;1.88;;;;;;;5.44;84.43;101276.59;5030908;28;20415;-69
2023/02/19 10:00:57;;;;;;;6.18;2.10;;;;;;;5.62;79.83;101258.56;5041049;28;20558;-70
2023/02/19 10:03:30;;;;;;;4.15;3.20;;;;;;;5.32;80.95;101267.16;5034099;28;20197;-71
2023/02/19 10:06:02;;;;;;;6.60;1.83;;;;;;;5.28;80.76;101275.69;5017123;28;20193;-70
2023/02/19 10:08:34;;;;;;;3.35;1.70;;;;;;;5.33;81.18;101270.66;5016143;28;20570;-68
2023/02/19 10:11:06;;;;;;;4.63;2.22;;;;;;;5.31;77.71;101286.09;5014979;28;20212;-67
2023/02/19 10:13:41;;;;;;;4.28;1.50;;;;;;;5.24;79.19;101283.19;5030588;28;20233;-69
2023/02/19 10:16:16;;;;;;;16.92;9.10;;;;;;;5.19;79.38;101277.47;5041185;28;20227;-70
2023/02/19 10:18:47;;;;;;;11.05;2.70;;;;;;;5.67;79.16;101288.47;5029109;28;20550;-70
2023/02/19 10:21:20;;;;;;;22.75;14.38;;;;;;;5.62;79.47;101306.91;5034732;28;20181;-69
2023/02/19 10:23:54;;;;;;;3.33;1.55;;;;;;;5.45;79.25;101307.81;5031043;28;20185;-69
2023/02/19 10:26:54;;;;;;;6.88;2.35;;;;;;;5.60;77.37;101319.66;5027640;28;20213;-67
2023/02/19 10:29:28;;;;;;;8.00;2.13;;;;;;;5.75;77.21;101311.00;5015655;28;20258;-70
2023/02/19 10:32:16;;;;;;;4.28;1.50;;;;;;;5.86;76.50;101321.44;5041117;28;20209;-69
2023/02/19 10:34:47;;;;;;;7.28;2.90;;;;;;;5.99;75.76;101316.50;5030330;28;20600;-67
2023/02/19 10:37:18;;;;;;;6.00;2.03;;;;;;;6.28;74.13;101318.78;5037850;28;20221;-69
2023/02/19 10:39:49;;;;;;;4.50;1.77;;;;;;;6.42;73.99;101321.69;5011983;28;20660;-69
2023/02/19 10:42:22;;;;;;;4.65;1.70;;;;;;;6.61;73.51;101341.19;5028247;28;20213;-71
2023/02/19 10:44:57;;;;;;;10.18;2.00;;;;;;;6.80;72.57;101346.25;5016895;28;20706;-68
2023/02/19 10:47:31;;;;;;;3.40;1.58;;;;;;;6.73;71.15;101345.25;5010868;28;20711;-69
2023/02/19 10:50:01;;;;;;;5.57;3.10;;;;;;;6.33;69.55;101348.69;5013978;28;20188;-69
2023/02/19 10:52:35;;;;;;;11.23;1.35;;;;;;;5.72;71.09;101346.22;5010714;28;20209;-69
2023/02/19 10:55:27;;;;;;;1.90;1.08;;;;;;;5.82;72.16;101344.25;5018061;28;20270;-65
2023/02/19 10:57:57;;;;;;;5.75;1.67;;;;;;;5.76;69.04;101355.66;5014511;28;20629;-70
2023/02/19 11:00:30;;;;;;;3.63;1.40;;;;;;;6.14;70.34;101349.81;5012041;28;20202;-71
2023/02/19 11:03:20;;;;;;;2.05;1.00;;;;;;;5.94;69.22;101359.13;5031325;28;20265;-71
2023/02/19 11:06:05;;;;;;;3.25;1.05;;;;;;;5.80;69.32;101368.59;5047108;28;20212;-69
2023/02/19 11:08:55;;;;;;;2.28;1.55;;;;;;;5.84;68.20;101377.19;5035396;28;20185;-69
2023/02/19 11:11:30;;;;;;;6.88;1.35;;;;;;;5.63;69.26;101383.78;5016860;28;20213;-68
2023/02/19 11:14:04;;;;;;;5.85;1.23;;;;;;;6.01;69.01;101395.09;5014910;28;20204;-68
2023/02/19 11:16:47;;;;;;;7.13;1.02;;;;;;;6.05;67.98;101393.78;5035517;28;20210;-67
2023/02/19 11:19:39;;;;;;;3.83;1.15;;;;;;;6.26;66.79;101413.00;5023354;28;20197;-69
2023/02/19 11:22:31;;;;;;;3.40;0.85;;;;;;;6.20;65.79;101408.28;5011053;28;20682;-70
2023/02/19 11:25:06;;;;;;;1.48;1.10;;;;;;;6.16;65.73;101416.81;5012168;28;20201;-69
2023/02/19 11:27:36;;;;;;;2.28;0.85;;;;;;;6.44;64.46;101411.06;5009682;28;20221;-69
2023/02/19 11:30:37;;;;;;;3.88;2.00;;;;;;;6.80;63.37;101411.66;5039806;28;20239;-69
2023/02/19 11:33:27;;;;;;;5.22;1.45;;;;;;;6.41;63.34;101397.94;5020227;28;20462;-68
2023/02/19 11:36:16;;;;;;;3.90;1.30;;;;;;;6.61;62.61;101417.34;5037083;28;20194;-69
2023/02/19 11:38:46;;;;;;;2.38;1.45;;;;;;;6.91;63.57;101415.91;5012917;28;20206;-68
2023/02/19 11:41:24;;;;;;;1.20;0.70;;;;;;;6.90;61.14;101416.91;5014340;28;20189;-70
2023/02/19 11:44:07;;;;;;;10.30;1.95;;;;;;;7.08;61.85;101420.28;5023467;28;20212;-69
2023/02/19 11:46:57;;;;;;;2.65;1.10;;;;;;;7.22;60.97;101422.31;5015854;28;20218;-68
2023/02/19 11:49:43;;;;;;;7.20;1.27;;;;;;;7.36;58.62;101424.31;5034515;28;20227;-69
2023/02/19 11:52:27;;;;;;;2.45;0.80;;;;;;;7.25;59.60;101405.84;5034245;28;20190;-68
2023/02/19 11:55:07;;;;;;;6.20;1.20;;;;;;;7.94;58.60;101409.75;5027720;28;20645;-68
2023/02/19 11:57:42;;;;;;;3.22;1.20;;;;;;;7.86;57.02;101407.94;5044774;28;20227;-69
2023/02/19 12:00:41;;;;;;;4.38;1.20;;;;;;;7.89;57.41;101395.16;5025488;28;20188;-68
2023/02/19 12:03:30;;;;;;;2.40;1.38;;;;;;;7.89;57.21;101417.53;5023902;28;20203;-64
2023/02/19 12:06:14;;;;;;;4.60;1.65;;;;;;;7.82;56.79;101419.25;5033951;28;20196;-71
2023/02/19 12:09:07;;;;;;;5.13;2.05;;;;;;;7.80;56.95;101432.88;5033867;28;20231;-67
2023/02/19 12:12:01;;;;;;;5.50;1.20;;;;;;;7.37;58.31;101436.78;5035964;28;20203;-70
2023/02/19 12:14:59;;;;;;;4.55;1.55;;;;;;;7.28;60.01;101434.25;5015487;28;20228;-68
2023/02/19 12:18:03;;;;;;;3.80;0.80;;;;;;;6.86;61.02;101439.78;5034465;28;20224;-70
2023/02/19 12:20:39;;;;;;;2.85;1.45;;;;;;;6.61;62.50;101438.84;5018279;28;20189;-69
2023/02/19 12:23:49;;;;;;;4.15;1.50;;;;;;;6.81;62.32;101434.03;5025967;28;20190;-69
2023/02/19 12:26:26;;;;;;;5.03;1.95;;;;;;;6.85;60.77;101433.53;5007937;28;20220;-67
2023/02/19 12:29:19;;;;;;;2.50;1.55;;;;;;;7.15;58.81;101433.94;5036284;28;20203;-68
2023/02/19 12:32:21;;;;;;;3.15;1.00;;;;;;;7.22;57.07;101451.91;5016862;28;20201;-67